Terminal Aerodrome Forecast
Issued by NWS Wilmington, NC

Home | Current Version | Previous Version | Text Only | Print | Product List | Glossary On
Versions: 1 2 3 4 5 6 7 8 9 10 11 12 13 14 15 16 17 18
081
FTUS42 KILM 290932 AAB
TAFLBT
TAF AMD
KLBT 290932Z 2910/3006 28003KT 5SM BR BKN012 OVC200
      TEMPO 2910/2912 00000KT 2SM BR BKN250
     FM291300 33007KT P6SM SCT050
     FM292300 VRB02KT P6SM SKC=

USA.gov is the U.S. government's official web portal to all federal, state and local government web resources and services.